sensor_id;sensor_type;location;lat;lon;timestamp;P1;durP1;ratioP1;P2;durP2;ratioP2
21987;SDS011;11158;53.404;-1.510;2023-07-29T00:00:49;4.95;;;1.30;;
21987;SDS011;11158;53.404;-1.510;2023-07-29T00:03:33;2.85;;;1.30;;
21987;SDS011;11158;53.404;-1.510;2023-07-29T00:06:18;1.15;;;1.05;;
21987;SDS011;11158;53.404;-1.510;2023-07-29T00:09:02;1.63;;;1.20;;
21987;SDS011;11158;53.404;-1.510;2023-07-29T00:11:47;1.77;;;1.20;;
21987;SDS011;11158;53.404;-1.510;2023-07-29T00:14:31;2.75;;;0.82;;
21987;SDS011;11158;53.404;-1.510;2023-07-29T00:17:15;3.97;;;1.20;;
21987;SDS011;11158;53.404;-1.510;2023-07-29T00:19:59;3.55;;;1.10;;
21987;SDS011;11158;53.404;-1.510;2023-07-29T00:22:43;3.75;;;1.20;;
21987;SDS011;11158;53.404;-1.510;2023-07-29T00:25:27;2.88;;;0.85;;
21987;SDS011;11158;53.404;-1.510;2023-07-29T00:28:11;3.28;;;1.05;;
21987;SDS011;11158;53.404;-1.510;2023-07-29T00:30:56;2.30;;;1.00;;
21987;SDS011;11158;53.404;-1.510;2023-07-29T00:33:40;3.13;;;1.05;;
21987;SDS011;11158;53.404;-1.510;2023-07-29T00:36:25;2.00;;;0.85;;
21987;SDS011;11158;53.404;-1.510;2023-07-29T00:39:09;1.73;;;1.00;;
21987;SDS011;11158;53.404;-1.510;2023-07-29T00:41:53;2.05;;;1.08;;
21987;SDS011;11158;53.404;-1.510;2023-07-29T00:44:37;2.08;;;1.27;;
21987;SDS011;11158;53.404;-1.510;2023-07-29T00:47:22;2.63;;;1.05;;
21987;SDS011;11158;53.404;-1.510;2023-07-29T00:50:09;0.82;;;0.82;;
21987;SDS011;11158;53.404;-1.510;2023-07-29T00:52:55;1.77;;;1.00;;
21987;SDS011;11158;53.404;-1.510;2023-07-29T00:55:40;2.95;;;1.27;;
21987;SDS011;11158;53.404;-1.510;2023-07-29T00:58:25;3.58;;;1.40;;
21987;SDS011;11158;53.404;-1.510;2023-07-29T01:01:09;1.10;;;0.90;;
21987;SDS011;11158;53.404;-1.510;2023-07-29T01:03:53;1.38;;;1.00;;
21987;SDS011;11158;53.404;-1.510;2023-07-29T01:06:41;3.42;;;1.08;;
21987;SDS011;11158;53.404;-1.510;2023-07-29T01:18:31;2.60;;;1.17;;
21987;SDS011;11158;53.404;-1.510;2023-07-29T01:21:17;3.60;;;1.35;;
21987;SDS011;11158;53.404;-1.510;2023-07-29T01:24:02;3.03;;;1.20;;
21987;SDS011;11158;53.404;-1.510;2023-07-29T01:26:46;2.75;;;1.23;;
21987;SDS011;11158;53.404;-1.510;2023-07-29T01:29:30;5.40;;;1.25;;
21987;SDS011;11158;53.404;-1.510;2023-07-29T01:32:19;4.20;;;1.00;;
21987;SDS011;11158;53.404;-1.510;2023-07-29T01:35:40;6.65;;;1.35;;
21987;SDS011;11158;53.404;-1.510;2023-07-29T01:38:29;3.45;;;1.30;;
21987;SDS011;11158;53.404;-1.510;2023-07-29T01:41:18;1.60;;;1.20;;
21987;SDS011;11158;53.404;-1.510;2023-07-29T01:44:03;3.63;;;1.45;;
21987;SDS011;11158;53.404;-1.510;2023-07-29T01:46:49;6.07;;;1.40;;
21987;SDS011;11158;53.404;-1.510;2023-07-29T01:49:33;1.88;;;1.20;;
21987;SDS011;11158;53.404;-1.510;2023-07-29T01:52:17;1.70;;;1.02;;
21987;SDS011;11158;53.404;-1.510;2023-07-29T01:55:02;1.10;;;1.00;;
21987;SDS011;11158;53.404;-1.510;2023-07-29T01:57:46;3.00;;;1.48;;
21987;SDS011;11158;53.404;-1.510;2023-07-29T02:00:30;2.30;;;1.10;;
21987;SDS011;11158;53.404;-1.510;2023-07-29T02:03:15;3.40;;;0.95;;
21987;SDS011;11158;53.404;-1.510;2023-07-29T02:05:59;3.42;;;1.20;;
21987;SDS011;11158;53.404;-1.510;2023-07-29T02:08:43;2.70;;;1.20;;
21987;SDS011;11158;53.404;-1.510;2023-07-29T02:11:28;1.35;;;1.00;;
21987;SDS011;11158;53.404;-1.510;2023-07-29T02:14:12;2.83;;;1.40;;
21987;SDS011;11158;53.404;-1.510;2023-07-29T02:16:56;2.00;;;1.20;;
21987;SDS011;11158;53.404;-1.510;2023-07-29T02:19:40;2.70;;;1.65;;
21987;SDS011;11158;53.404;-1.510;2023-07-29T02:22:24;2.80;;;1.20;;
21987;SDS011;11158;53.404;-1.510;2023-07-29T02:25:08;1.98;;;1.15;;
21987;SDS011;11158;53.404;-1.510;2023-07-29T02:27:53;3.33;;;1.17;;
21987;SDS011;11158;53.404;-1.510;2023-07-29T02:30:40;3.15;;;1.15;;
21987;SDS011;11158;53.404;-1.510;2023-07-29T02:33:25;2.70;;;1.20;;
21987;SDS011;11158;53.404;-1.510;2023-07-29T02:36:10;1.60;;;1.20;;
21987;SDS011;11158;53.404;-1.510;2023-07-29T02:38:55;2.55;;;1.20;;
21987;SDS011;11158;53.404;-1.510;2023-07-29T02:41:40;2.35;;;1.40;;
21987;SDS011;11158;53.404;-1.510;2023-07-29T02:44:24;2.08;;;1.25;;
21987;SDS011;11158;53.404;-1.510;2023-07-29T02:47:08;2.13;;;1.20;;
21987;SDS011;11158;53.404;-1.510;2023-07-29T02:49:52;3.38;;;1.33;;
21987;SDS011;11158;53.404;-1.510;2023-07-29T02:52:36;2.58;;;1.00;;
21987;SDS011;11158;53.404;-1.510;2023-07-29T02:55:20;3.20;;;1.40;;
21987;SDS011;11158;53.404;-1.510;2023-07-29T02:58:05;1.92;;;1.00;;
21987;SDS011;11158;53.404;-1.510;2023-07-29T03:00:49;4.93;;;1.30;;
21987;SDS011;11158;53.404;-1.510;2023-07-29T03:03:33;3.67;;;1.40;;
21987;SDS011;11158;53.404;-1.510;2023-07-29T03:06:17;2.42;;;1.00;;
21987;SDS011;11158;53.404;-1.510;2023-07-29T03:09:02;5.90;;;1.02;;
21987;SDS011;11158;53.404;-1.510;2023-07-29T03:11:46;4.13;;;1.30;;
21987;SDS011;11158;53.404;-1.510;2023-07-29T03:14:31;1.50;;;1.00;;
21987;SDS011;11158;53.404;-1.510;2023-07-29T03:17:15;2.90;;;1.30;;
21987;SDS011;11158;53.404;-1.510;2023-07-29T03:19:59;3.10;;;1.15;;
21987;SDS011;11158;53.404;-1.510;2023-07-29T03:22:43;3.33;;;1.15;;
21987;SDS011;11158;53.404;-1.510;2023-07-29T03:25:28;4.38;;;1.38;;
21987;SDS011;11158;53.404;-1.510;2023-07-29T03:28:12;3.63;;;1.00;;
21987;SDS011;11158;53.404;-1.510;2023-07-29T03:30:57;2.80;;;0.82;;
21987;SDS011;11158;53.404;-1.510;2023-07-29T03:33:41;4.22;;;1.20;;
21987;SDS011;11158;53.404;-1.510;2023-07-29T03:36:25;4.25;;;1.15;;
21987;SDS011;11158;53.404;-1.510;2023-07-29T03:39:10;3.33;;;1.40;;
21987;SDS011;11158;53.404;-1.510;2023-07-29T03:41:54;8.45;;;1.40;;
21987;SDS011;11158;53.404;-1.510;2023-07-29T03:44:38;1.63;;;1.10;;
21987;SDS011;11158;53.404;-1.510;2023-07-29T03:47:23;2.55;;;1.10;;
21987;SDS011;11158;53.404;-1.510;2023-07-29T03:50:07;5.40;;;1.40;;
21987;SDS011;11158;53.404;-1.510;2023-07-29T03:52:52;4.35;;;1.30;;
21987;SDS011;11158;53.404;-1.510;2023-07-29T03:55:35;5.03;;;1.08;;
21987;SDS011;11158;53.404;-1.510;2023-07-29T03:58:19;4.60;;;1.52;;
21987;SDS011;11158;53.404;-1.510;2023-07-29T04:01:04;3.28;;;1.65;;
21987;SDS011;11158;53.404;-1.510;2023-07-29T04:03:48;3.63;;;1.10;;
21987;SDS011;11158;53.404;-1.510;2023-07-29T04:06:32;6.20;;;1.48;;
21987;SDS011;11158;53.404;-1.510;2023-07-29T04:09:16;1.92;;;1.55;;
21987;SDS011;11158;53.404;-1.510;2023-07-29T04:12:00;4.28;;;1.40;;
21987;SDS011;11158;53.404;-1.510;2023-07-29T04:14:44;3.75;;;1.58;;
21987;SDS011;11158;53.404;-1.510;2023-07-29T04:17:28;3.17;;;1.10;;
21987;SDS011;11158;53.404;-1.510;2023-07-29T04:20:12;6.88;;;1.60;;
21987;SDS011;11158;53.404;-1.510;2023-07-29T04:22:56;5.22;;;1.70;;
21987;SDS011;11158;53.404;-1.510;2023-07-29T04:25:40;7.40;;;1.58;;
21987;SDS011;11158;53.404;-1.510;2023-07-29T04:28:24;5.53;;;1.48;;
21987;SDS011;11158;53.404;-1.510;2023-07-29T04:31:09;6.63;;;1.35;;
21987;SDS011;11158;53.404;-1.510;2023-07-29T04:33:53;4.88;;;1.58;;
21987;SDS011;11158;53.404;-1.510;2023-07-29T04:36:37;5.03;;;1.58;;
21987;SDS011;11158;53.404;-1.510;2023-07-29T04:39:21;4.55;;;1.98;;
21987;SDS011;11158;53.404;-1.510;2023-07-29T04:42:05;4.13;;;1.50;;
21987;SDS011;11158;53.404;-1.510;2023-07-29T04:44:50;3.08;;;1.45;;
21987;SDS011;11158;53.404;-1.510;2023-07-29T04:47:34;6.38;;;1.75;;
21987;SDS011;11158;53.404;-1.510;2023-07-29T04:50:18;4.13;;;1.40;;
21987;SDS011;11158;53.404;-1.510;2023-07-29T04:53:02;6.30;;;1.60;;
21987;SDS011;11158;53.404;-1.510;2023-07-29T04:55:46;5.50;;;1.50;;
21987;SDS011;11158;53.404;-1.510;2023-07-29T04:58:30;4.40;;;1.73;;
21987;SDS011;11158;53.404;-1.510;2023-07-29T05:01:18;7.18;;;1.63;;
21987;SDS011;11158;53.404;-1.510;2023-07-29T05:04:02;4.38;;;1.73;;
21987;SDS011;11158;53.404;-1.510;2023-07-29T05:06:47;3.33;;;1.90;;
21987;SDS011;11158;53.404;-1.510;2023-07-29T05:09:31;9.20;;;1.80;;
21987;SDS011;11158;53.404;-1.510;2023-07-29T05:12:15;6.22;;;1.80;;
21987;SDS011;11158;53.404;-1.510;2023-07-29T05:14:59;7.50;;;2.15;;
21987;SDS011;11158;53.404;-1.510;2023-07-29T05:17:43;4.95;;;1.92;;
21987;SDS011;11158;53.404;-1.510;2023-07-29T05:20:27;6.68;;;1.55;;
21987;SDS011;11158;53.404;-1.510;2023-07-29T05:23:12;7.45;;;1.45;;
21987;SDS011;11158;53.404;-1.510;2023-07-29T05:25:56;8.25;;;2.20;;
21987;SDS011;11158;53.404;-1.510;2023-07-29T05:28:40;6.60;;;1.88;;
21987;SDS011;11158;53.404;-1.510;2023-07-29T05:31:24;4.57;;;1.58;;
21987;SDS011;11158;53.404;-1.510;2023-07-29T05:34:08;5.30;;;1.80;;
21987;SDS011;11158;53.404;-1.510;2023-07-29T05:36:52;2.90;;;1.23;;
21987;SDS011;11158;53.404;-1.510;2023-07-29T05:39:37;5.68;;;2.13;;
21987;SDS011;11158;53.404;-1.510;2023-07-29T05:42:21;4.47;;;1.80;;
21987;SDS011;11158;53.404;-1.510;2023-07-29T05:45:06;4.90;;;1.73;;
21987;SDS011;11158;53.404;-1.510;2023-07-29T05:47:50;5.20;;;1.83;;
21987;SDS011;11158;53.404;-1.510;2023-07-29T05:50:35;5.05;;;1.90;;
21987;SDS011;11158;53.404;-1.510;2023-07-29T05:53:19;5.35;;;1.92;;
21987;SDS011;11158;53.404;-1.510;2023-07-29T05:56:03;5.53;;;2.00;;
21987;SDS011;11158;53.404;-1.510;2023-07-29T05:58:48;6.75;;;1.90;;
21987;SDS011;11158;53.404;-1.510;2023-07-29T06:01:32;5.60;;;1.75;;
21987;SDS011;11158;53.404;-1.510;2023-07-29T06:04:16;5.05;;;1.90;;
21987;SDS011;11158;53.404;-1.510;2023-07-29T06:07:00;7.20;;;1.70;;
21987;SDS011;11158;53.404;-1.510;2023-07-29T06:09:44;5.13;;;2.33;;
21987;SDS011;11158;53.404;-1.510;2023-07-29T06:12:28;14.68;;;2.38;;
21987;SDS011;11158;53.404;-1.510;2023-07-29T06:15:12;8.85;;;2.50;;
21987;SDS011;11158;53.404;-1.510;2023-07-29T06:17:57;7.35;;;2.20;;
21987;SDS011;11158;53.404;-1.510;2023-07-29T06:20:41;6.78;;;1.75;;
21987;SDS011;11158;53.404;-1.510;2023-07-29T06:23:26;7.10;;;2.88;;
21987;SDS011;11158;53.404;-1.510;2023-07-29T06:26:10;7.03;;;1.80;;
21987;SDS011;11158;53.404;-1.510;2023-07-29T06:28:54;3.92;;;1.65;;
21987;SDS011;11158;53.404;-1.510;2023-07-29T06:31:38;5.18;;;1.80;;
21987;SDS011;11158;53.404;-1.510;2023-07-29T06:34:22;6.53;;;2.22;;
21987;SDS011;11158;53.404;-1.510;2023-07-29T06:37:06;5.68;;;1.48;;
21987;SDS011;11158;53.404;-1.510;2023-07-29T06:39:50;5.82;;;1.70;;
21987;SDS011;11158;53.404;-1.510;2023-07-29T06:42:34;5.88;;;1.80;;
21987;SDS011;11158;53.404;-1.510;2023-07-29T06:45:18;5.25;;;1.70;;
21987;SDS011;11158;53.404;-1.510;2023-07-29T06:48:02;2.83;;;1.33;;
21987;SDS011;11158;53.404;-1.510;2023-07-29T06:50:46;4.68;;;1.40;;
21987;SDS011;11158;53.404;-1.510;2023-07-29T06:53:30;3.63;;;1.80;;
21987;SDS011;11158;53.404;-1.510;2023-07-29T06:56:14;4.75;;;1.50;;
21987;SDS011;11158;53.404;-1.510;2023-07-29T06:58:59;3.38;;;1.48;;
21987;SDS011;11158;53.404;-1.510;2023-07-29T07:01:44;7.82;;;1.88;;
21987;SDS011;11158;53.404;-1.510;2023-07-29T07:04:28;5.95;;;1.40;;
21987;SDS011;11158;53.404;-1.510;2023-07-29T07:07:12;5.93;;;1.10;;
21987;SDS011;11158;53.404;-1.510;2023-07-29T07:09:56;6.32;;;1.17;;
21987;SDS011;11158;53.404;-1.510;2023-07-29T07:12:41;3.35;;;1.30;;
21987;SDS011;11158;53.404;-1.510;2023-07-29T07:15:25;5.25;;;1.38;;
21987;SDS011;11158;53.404;-1.510;2023-07-29T07:18:09;6.93;;;1.73;;
21987;SDS011;11158;53.404;-1.510;2023-07-29T07:20:53;6.18;;;1.85;;
21987;SDS011;11158;53.404;-1.510;2023-07-29T07:23:41;5.30;;;1.45;;
21987;SDS011;11158;53.404;-1.510;2023-07-29T07:26:25;6.30;;;1.52;;
21987;SDS011;11158;53.404;-1.510;2023-07-29T07:29:09;7.28;;;1.80;;
21987;SDS011;11158;53.404;-1.510;2023-07-29T07:31:53;3.45;;;1.48;;
21987;SDS011;11158;53.404;-1.510;2023-07-29T07:34:38;3.35;;;1.40;;
21987;SDS011;11158;53.404;-1.510;2023-07-29T07:37:22;5.07;;;1.35;;
21987;SDS011;11158;53.404;-1.510;2023-07-29T07:40:06;4.32;;;1.45;;
21987;SDS011;11158;53.404;-1.510;2023-07-29T07:42:51;3.13;;;1.10;;
21987;SDS011;11158;53.404;-1.510;2023-07-29T07:45:35;5.72;;;1.95;;
21987;SDS011;11158;53.404;-1.510;2023-07-29T07:48:19;7.15;;;1.70;;
21987;SDS011;11158;53.404;-1.510;2023-07-29T07:51:13;3.70;;;1.70;;
21987;SDS011;11158;53.404;-1.510;2023-07-29T07:53:57;5.38;;;1.67;;
21987;SDS011;11158;53.404;-1.510;2023-07-29T07:56:42;4.72;;;1.30;;
21987;SDS011;11158;53.404;-1.510;2023-07-29T07:59:27;5.50;;;1.58;;
21987;SDS011;11158;53.404;-1.510;2023-07-29T08:02:11;6.40;;;1.73;;
21987;SDS011;11158;53.404;-1.510;2023-07-29T08:04:55;6.63;;;1.67;;
21987;SDS011;11158;53.404;-1.510;2023-07-29T08:07:39;4.13;;;1.30;;
21987;SDS011;11158;53.404;-1.510;2023-07-29T08:10:23;4.28;;;2.03;;
21987;SDS011;11158;53.404;-1.510;2023-07-29T08:13:07;4.50;;;1.38;;
21987;SDS011;11158;53.404;-1.510;2023-07-29T08:15:52;3.75;;;1.33;;
21987;SDS011;11158;53.404;-1.510;2023-07-29T08:18:36;5.28;;;1.50;;
21987;SDS011;11158;53.404;-1.510;2023-07-29T08:21:20;7.45;;;1.17;;
21987;SDS011;11158;53.404;-1.510;2023-07-29T08:24:04;3.00;;;1.00;;
21987;SDS011;11158;53.404;-1.510;2023-07-29T08:26:50;4.13;;;1.10;;
21987;SDS011;11158;53.404;-1.510;2023-07-29T08:29:34;4.80;;;1.30;;
21987;SDS011;11158;53.404;-1.510;2023-07-29T08:32:18;3.22;;;1.05;;
21987;SDS011;11158;53.404;-1.510;2023-07-29T08:35:02;5.32;;;1.15;;
21987;SDS011;11158;53.404;-1.510;2023-07-29T08:37:46;4.63;;;1.00;;
21987;SDS011;11158;53.404;-1.510;2023-07-29T08:40:31;3.08;;;1.08;;
21987;SDS011;11158;53.404;-1.510;2023-07-29T08:43:19;3.78;;;1.17;;
21987;SDS011;11158;53.404;-1.510;2023-07-29T08:46:04;2.17;;;1.00;;
21987;SDS011;11158;53.404;-1.510;2023-07-29T08:48:50;2.47;;;0.98;;
21987;SDS011;11158;53.404;-1.510;2023-07-29T08:51:35;3.03;;;1.10;;
21987;SDS011;11158;53.404;-1.510;2023-07-29T08:54:20;5.13;;;1.00;;
21987;SDS011;11158;53.404;-1.510;2023-07-29T08:57:06;2.03;;;0.80;;
21987;SDS011;11158;53.404;-1.510;2023-07-29T08:59:50;2.33;;;1.08;;
21987;SDS011;11158;53.404;-1.510;2023-07-29T09:02:35;3.03;;;1.27;;
21987;SDS011;11158;53.404;-1.510;2023-07-29T09:05:20;3.78;;;1.17;;
21987;SDS011;11158;53.404;-1.510;2023-07-29T09:08:05;3.33;;;0.88;;
21987;SDS011;11158;53.404;-1.510;2023-07-29T09:10:50;4.57;;;1.20;;
21987;SDS011;11158;53.404;-1.510;2023-07-29T09:13:34;2.88;;;1.10;;
21987;SDS011;11158;53.404;-1.510;2023-07-29T09:16:22;2.38;;;1.00;;
21987;SDS011;11158;53.404;-1.510;2023-07-29T09:19:06;2.97;;;1.00;;
21987;SDS011;11158;53.404;-1.510;2023-07-29T09:21:50;5.75;;;0.90;;
21987;SDS011;11158;53.404;-1.510;2023-07-29T09:24:34;5.10;;;1.35;;
21987;SDS011;11158;53.404;-1.510;2023-07-29T09:30:17;4.28;;;1.20;;
21987;SDS011;11158;53.404;-1.510;2023-07-29T09:33:01;3.40;;;1.20;;
21987;SDS011;11158;53.404;-1.510;2023-07-29T09:35:45;2.72;;;1.00;;
21987;SDS011;11158;53.404;-1.510;2023-07-29T09:38:30;3.67;;;1.00;;
21987;SDS011;11158;53.404;-1.510;2023-07-29T09:41:15;2.67;;;1.00;;
21987;SDS011;11158;53.404;-1.510;2023-07-29T09:44:00;4.47;;;1.25;;
21987;SDS011;11158;53.404;-1.510;2023-07-29T09:46:46;4.55;;;1.20;;
21987;SDS011;11158;53.404;-1.510;2023-07-29T09:49:34;2.75;;;0.93;;
21987;SDS011;11158;53.404;-1.510;2023-07-29T09:52:21;5.47;;;1.00;;
21987;SDS011;11158;53.404;-1.510;2023-07-29T09:55:07;5.05;;;0.98;;
21987;SDS011;11158;53.404;-1.510;2023-07-29T09:57:54;4.22;;;1.20;;
21987;SDS011;11158;53.404;-1.510;2023-07-29T10:00:40;3.15;;;0.93;;
21987;SDS011;11158;53.404;-1.510;2023-07-29T10:03:25;3.10;;;0.75;;
21987;SDS011;11158;53.404;-1.510;2023-07-29T10:06:09;6.47;;;1.52;;
21987;SDS011;11158;53.404;-1.510;2023-07-29T10:08:55;5.38;;;1.02;;
21987;SDS011;11158;53.404;-1.510;2023-07-29T10:11:41;5.20;;;1.17;;
21987;SDS011;11158;53.404;-1.510;2023-07-29T10:14:27;5.80;;;1.02;;
21987;SDS011;11158;53.404;-1.510;2023-07-29T10:17:12;4.97;;;1.08;;
21987;SDS011;11158;53.404;-1.510;2023-07-29T10:19:59;2.78;;;1.02;;
21987;SDS011;11158;53.404;-1.510;2023-07-29T10:22:45;4.40;;;1.15;;
21987;SDS011;11158;53.404;-1.510;2023-07-29T10:25:38;6.72;;;1.23;;
21987;SDS011;11158;53.404;-1.510;2023-07-29T10:28:25;2.90;;;0.85;;
21987;SDS011;11158;53.404;-1.510;2023-07-29T10:31:15;4.82;;;1.00;;
21987;SDS011;11158;53.404;-1.510;2023-07-29T10:34:00;3.30;;;0.98;;
21987;SDS011;11158;53.404;-1.510;2023-07-29T10:36:46;5.93;;;1.17;;
21987;SDS011;11158;53.404;-1.510;2023-07-29T10:39:39;3.45;;;1.30;;
21987;SDS011;11158;53.404;-1.510;2023-07-29T10:42:24;4.03;;;1.40;;
21987;SDS011;11158;53.404;-1.510;2023-07-29T10:45:20;3.45;;;1.23;;
21987;SDS011;11158;53.404;-1.510;2023-07-29T10:48:11;3.75;;;1.20;;
21987;SDS011;11158;53.404;-1.510;2023-07-29T10:56:48;4.70;;;0.93;;
21987;SDS011;11158;53.404;-1.510;2023-07-29T10:59:32;3.72;;;1.30;;
21987;SDS011;11158;53.404;-1.510;2023-07-29T11:02:17;4.15;;;1.00;;
21987;SDS011;11158;53.404;-1.510;2023-07-29T11:05:07;1.90;;;0.80;;
21987;SDS011;11158;53.404;-1.510;2023-07-29T11:07:59;3.83;;;1.13;;
21987;SDS011;11158;53.404;-1.510;2023-07-29T11:11:04;2.90;;;1.08;;
21987;SDS011;11158;53.404;-1.510;2023-07-29T11:13:48;5.95;;;1.33;;
21987;SDS011;11158;53.404;-1.510;2023-07-29T11:16:32;3.08;;;1.02;;
21987;SDS011;11158;53.404;-1.510;2023-07-29T11:19:17;3.20;;;0.80;;
21987;SDS011;11158;53.404;-1.510;2023-07-29T11:22:04;4.25;;;1.00;;
21987;SDS011;11158;53.404;-1.510;2023-07-29T11:24:48;4.07;;;1.20;;
21987;SDS011;11158;53.404;-1.510;2023-07-29T11:27:32;7.82;;;1.60;;
21987;SDS011;11158;53.404;-1.510;2023-07-29T11:30:16;4.95;;;1.30;;
21987;SDS011;11158;53.404;-1.510;2023-07-29T11:33:00;5.25;;;1.40;;
21987;SDS011;11158;53.404;-1.510;2023-07-29T11:35:44;4.07;;;1.10;;
21987;SDS011;11158;53.404;-1.510;2023-07-29T11:38:28;7.43;;;1.63;;
21987;SDS011;11158;53.404;-1.510;2023-07-29T11:41:12;3.72;;;1.15;;
21987;SDS011;11158;53.404;-1.510;2023-07-29T11:43:56;4.18;;;1.10;;
21987;SDS011;11158;53.404;-1.510;2023-07-29T11:46:40;6.05;;;1.50;;
21987;SDS011;11158;53.404;-1.510;2023-07-29T11:49:24;6.95;;;1.60;;
21987;SDS011;11158;53.404;-1.510;2023-07-29T11:52:08;3.95;;;1.23;;
21987;SDS011;11158;53.404;-1.510;2023-07-29T11:54:53;6.15;;;1.20;;
21987;SDS011;11158;53.404;-1.510;2023-07-29T11:57:38;4.47;;;1.50;;
21987;SDS011;11158;53.404;-1.510;2023-07-29T12:00:23;5.63;;;1.48;;
21987;SDS011;11158;53.404;-1.510;2023-07-29T12:03:09;5.30;;;1.30;;
21987;SDS011;11158;53.404;-1.510;2023-07-29T12:05:54;4.93;;;1.10;;
21987;SDS011;11158;53.404;-1.510;2023-07-29T12:08:39;4.72;;;1.00;;
21987;SDS011;11158;53.404;-1.510;2023-07-29T12:11:23;4.65;;;1.15;;
21987;SDS011;11158;53.404;-1.510;2023-07-29T12:14:07;7.72;;;1.00;;
21987;SDS011;11158;53.404;-1.510;2023-07-29T12:16:52;3.47;;;1.10;;
21987;SDS011;11158;53.404;-1.510;2023-07-29T12:19:37;3.25;;;0.70;;
21987;SDS011;11158;53.404;-1.510;2023-07-29T12:22:23;2.00;;;0.80;;
21987;SDS011;11158;53.404;-1.510;2023-07-29T12:25:07;4.43;;;1.20;;
21987;SDS011;11158;53.404;-1.510;2023-07-29T12:27:52;5.57;;;0.98;;
21987;SDS011;11158;53.404;-1.510;2023-07-29T12:30:43;3.15;;;0.93;;
21987;SDS011;11158;53.404;-1.510;2023-07-29T12:36:16;2.70;;;0.80;;
21987;SDS011;11158;53.404;-1.510;2023-07-29T12:39:01;3.60;;;1.02;;
21987;SDS011;11158;53.404;-1.510;2023-07-29T12:41:46;4.28;;;1.10;;
21987;SDS011;11158;53.404;-1.510;2023-07-29T12:44:32;4.20;;;1.30;;
21987;SDS011;11158;53.404;-1.510;2023-07-29T12:47:17;5.75;;;1.30;;
21987;SDS011;11158;53.404;-1.510;2023-07-29T12:50:01;3.78;;;1.38;;
21987;SDS011;11158;53.404;-1.510;2023-07-29T12:52:45;6.28;;;1.20;;
21987;SDS011;11158;53.404;-1.510;2023-07-29T12:55:29;8.50;;;1.50;;
21987;SDS011;11158;53.404;-1.510;2023-07-29T12:58:14;5.25;;;1.30;;
21987;SDS011;11158;53.404;-1.510;2023-07-29T13:00:58;3.25;;;1.15;;
21987;SDS011;11158;53.404;-1.510;2023-07-29T13:03:42;6.07;;;1.25;;
21987;SDS011;11158;53.404;-1.510;2023-07-29T13:06:27;3.92;;;1.00;;
21987;SDS011;11158;53.404;-1.510;2023-07-29T13:09:11;2.38;;;1.05;;
21987;SDS011;11158;53.404;-1.510;2023-07-29T13:11:55;3.55;;;1.20;;
21987;SDS011;11158;53.404;-1.510;2023-07-29T13:14:40;5.68;;;1.02;;
21987;SDS011;11158;53.404;-1.510;2023-07-29T13:17:24;4.65;;;0.98;;
21987;SDS011;11158;53.404;-1.510;2023-07-29T13:20:08;8.05;;;1.20;;
21987;SDS011;11158;53.404;-1.510;2023-07-29T13:22:52;4.28;;;1.17;;
21987;SDS011;11158;53.404;-1.510;2023-07-29T13:25:36;3.13;;;1.08;;
21987;SDS011;11158;53.404;-1.510;2023-07-29T13:28:20;5.65;;;1.13;;
21987;SDS011;11158;53.404;-1.510;2023-07-29T13:31:04;3.83;;;1.10;;
21987;SDS011;11158;53.404;-1.510;2023-07-29T13:33:49;4.47;;;1.02;;
21987;SDS011;11158;53.404;-1.510;2023-07-29T13:36:32;1.98;;;0.70;;
21987;SDS011;11158;53.404;-1.510;2023-07-29T13:39:18;4.18;;;1.08;;
21987;SDS011;11158;53.404;-1.510;2023-07-29T13:42:02;3.67;;;1.00;;
21987;SDS011;11158;53.404;-1.510;2023-07-29T13:44:46;3.45;;;0.82;;
21987;SDS011;11158;53.404;-1.510;2023-07-29T13:47:30;3.80;;;0.85;;
21987;SDS011;11158;53.404;-1.510;2023-07-29T13:50:14;2.20;;;0.80;;
21987;SDS011;11158;53.404;-1.510;2023-07-29T13:52:58;2.70;;;0.68;;
21987;SDS011;11158;53.404;-1.510;2023-07-29T13:55:42;2.85;;;0.88;;
21987;SDS011;11158;53.404;-1.510;2023-07-29T13:58:26;1.35;;;0.80;;
21987;SDS011;11158;53.404;-1.510;2023-07-29T14:01:10;4.07;;;1.00;;
21987;SDS011;11158;53.404;-1.510;2023-07-29T14:03:54;2.33;;;0.85;;
21987;SDS011;11158;53.404;-1.510;2023-07-29T14:06:39;2.88;;;0.88;;
21987;SDS011;11158;53.404;-1.510;2023-07-29T14:09:23;3.72;;;0.93;;
21987;SDS011;11158;53.404;-1.510;2023-07-29T14:12:07;3.10;;;0.90;;
21987;SDS011;11158;53.404;-1.510;2023-07-29T14:14:51;3.67;;;1.10;;
21987;SDS011;11158;53.404;-1.510;2023-07-29T14:17:35;3.55;;;0.70;;
21987;SDS011;11158;53.404;-1.510;2023-07-29T14:20:19;3.03;;;0.73;;
21987;SDS011;11158;53.404;-1.510;2023-07-29T14:23:04;3.83;;;1.00;;
21987;SDS011;11158;53.404;-1.510;2023-07-29T14:25:48;2.92;;;0.90;;
21987;SDS011;11158;53.404;-1.510;2023-07-29T14:28:32;2.28;;;0.82;;
21987;SDS011;11158;53.404;-1.510;2023-07-29T14:31:17;2.75;;;0.90;;
21987;SDS011;11158;53.404;-1.510;2023-07-29T14:34:01;3.60;;;1.02;;
21987;SDS011;11158;53.404;-1.510;2023-07-29T14:36:45;3.65;;;0.88;;
21987;SDS011;11158;53.404;-1.510;2023-07-29T14:39:30;2.28;;;1.13;;
21987;SDS011;11158;53.404;-1.510;2023-07-29T14:42:14;2.30;;;0.65;;
21987;SDS011;11158;53.404;-1.510;2023-07-29T14:44:58;3.38;;;1.00;;
21987;SDS011;11158;53.404;-1.510;2023-07-29T14:47:56;2.53;;;1.00;;
21987;SDS011;11158;53.404;-1.510;2023-07-29T14:50:40;2.85;;;0.80;;
21987;SDS011;11158;53.404;-1.510;2023-07-29T14:53:25;2.42;;;0.60;;
21987;SDS011;11158;53.404;-1.510;2023-07-29T14:56:09;3.45;;;0.70;;
21987;SDS011;11158;53.404;-1.510;2023-07-29T14:58:53;2.03;;;0.47;;
21987;SDS011;11158;53.404;-1.510;2023-07-29T15:01:37;2.80;;;0.70;;
21987;SDS011;11158;53.404;-1.510;2023-07-29T15:04:21;2.90;;;0.70;;
21987;SDS011;11158;53.404;-1.510;2023-07-29T15:07:05;2.90;;;0.70;;
21987;SDS011;11158;53.404;-1.510;2023-07-29T15:09:49;2.35;;;0.70;;
21987;SDS011;11158;53.404;-1.510;2023-07-29T15:12:33;1.58;;;0.50;;
21987;SDS011;11158;53.404;-1.510;2023-07-29T15:15:17;3.65;;;0.80;;
21987;SDS011;11158;53.404;-1.510;2023-07-29T15:18:02;2.15;;;0.73;;
21987;SDS011;11158;53.404;-1.510;2023-07-29T15:20:46;2.53;;;0.98;;
21987;SDS011;11158;53.404;-1.510;2023-07-29T15:23:30;2.42;;;0.80;;
21987;SDS011;11158;53.404;-1.510;2023-07-29T15:26:15;4.40;;;0.98;;
21987;SDS011;11158;53.404;-1.510;2023-07-29T15:29:00;6.57;;;1.20;;
21987;SDS011;11158;53.404;-1.510;2023-07-29T15:31:45;4.53;;;1.08;;
21987;SDS011;11158;53.404;-1.510;2023-07-29T15:34:30;3.03;;;0.90;;
21987;SDS011;11158;53.404;-1.510;2023-07-29T15:37:15;4.05;;;1.00;;
21987;SDS011;11158;53.404;-1.510;2023-07-29T15:39:59;4.60;;;1.10;;
21987;SDS011;11158;53.404;-1.510;2023-07-29T15:42:43;1.83;;;0.95;;
21987;SDS011;11158;53.404;-1.510;2023-07-29T15:45:28;5.25;;;1.13;;
21987;SDS011;11158;53.404;-1.510;2023-07-29T15:48:12;3.83;;;1.00;;
21987;SDS011;11158;53.404;-1.510;2023-07-29T15:50:57;2.58;;;0.82;;
21987;SDS011;11158;53.404;-1.510;2023-07-29T15:53:41;2.70;;;0.70;;
21987;SDS011;11158;53.404;-1.510;2023-07-29T15:56:26;2.53;;;0.73;;
21987;SDS011;11158;53.404;-1.510;2023-07-29T15:59:12;3.95;;;1.00;;
21987;SDS011;11158;53.404;-1.510;2023-07-29T16:01:56;3.78;;;0.95;;
21987;SDS011;11158;53.404;-1.510;2023-07-29T16:04:40;1.60;;;0.70;;
21987;SDS011;11158;53.404;-1.510;2023-07-29T16:07:24;2.17;;;0.80;;
21987;SDS011;11158;53.404;-1.510;2023-07-29T16:10:08;2.05;;;0.77;;
21987;SDS011;11158;53.404;-1.510;2023-07-29T16:12:53;4.43;;;0.90;;
21987;SDS011;11158;53.404;-1.510;2023-07-29T16:15:37;3.72;;;0.70;;
21987;SDS011;11158;53.404;-1.510;2023-07-29T16:18:21;2.65;;;0.70;;
21987;SDS011;11158;53.404;-1.510;2023-07-29T16:21:05;3.90;;;1.20;;
21987;SDS011;11158;53.404;-1.510;2023-07-29T16:23:50;2.00;;;0.55;;
21987;SDS011;11158;53.404;-1.510;2023-07-29T16:26:36;3.33;;;0.80;;
21987;SDS011;11158;53.404;-1.510;2023-07-29T16:29:21;2.65;;;1.00;;
21987;SDS011;11158;53.404;-1.510;2023-07-29T16:32:05;5.25;;;0.63;;
21987;SDS011;11158;53.404;-1.510;2023-07-29T16:34:49;2.55;;;0.98;;
21987;SDS011;11158;53.404;-1.510;2023-07-29T16:37:33;3.05;;;0.80;;